sensor_id;sensor_type;location;lat;lon;timestamp;pressure;altitude;pressure_sealevel;temperature;humidity
5691;BME280;2870;42.680;23.364;2024-02-14T00:02:26;94831.50;;;7.05;93.59
5691;BME280;2870;42.680;23.364;2024-02-14T00:04:52;94796.06;;;6.93;93.84
5691;BME280;2870;42.680;23.364;2024-02-14T00:07:21;94828.75;;;7.13;93.14
5691;BME280;2870;42.680;23.364;2024-02-14T00:09:47;94836.44;;;6.78;94.62
5691;BME280;2870;42.680;23.364;2024-02-14T00:12:14;94831.63;;;7.21;94.80
5691;BME280;2870;42.680;23.364;2024-02-14T00:14:41;94839.25;;;6.99;94.04
5691;BME280;2870;42.680;23.364;2024-02-14T00:17:08;94839.41;;;6.80;94.65
5691;BME280;2870;42.680;23.364;2024-02-14T00:19:35;94839.50;;;6.54;95.90
5691;BME280;2870;42.680;23.364;2024-02-14T00:22:02;94848.25;;;6.71;95.64
5691;BME280;2870;42.680;23.364;2024-02-14T00:24:31;94848.13;;;6.98;95.17
5691;BME280;2870;42.680;23.364;2024-02-14T00:26:57;94842.84;;;6.86;94.17
5691;BME280;2870;42.680;23.364;2024-02-14T00:29:25;94840.97;;;6.68;95.89
5691;BME280;2870;42.680;23.364;2024-02-14T00:31:52;94840.16;;;7.15;93.19
5691;BME280;2870;42.680;23.364;2024-02-14T00:34:19;94839.41;;;6.80;94.57
5691;BME280;2870;42.680;23.364;2024-02-14T00:36:46;94838.28;;;7.17;93.73
5691;BME280;2870;42.680;23.364;2024-02-14T00:39:13;94854.34;;;7.04;93.17
5691;BME280;2870;42.680;23.364;2024-02-14T00:41:41;94852.91;;;6.89;94.31
5691;BME280;2870;42.680;23.364;2024-02-14T00:44:07;94850.91;;;6.77;95.35
5691;BME280;2870;42.680;23.364;2024-02-14T00:46:34;94842.31;;;6.75;95.28
5691;BME280;2870;42.680;23.364;2024-02-14T00:49:01;94848.44;;;6.73;94.92
5691;BME280;2870;42.680;23.364;2024-02-14T00:51:27;94860.31;;;6.53;95.68
5691;BME280;2870;42.680;23.364;2024-02-14T00:53:54;94848.69;;;6.75;94.42
5691;BME280;2870;42.680;23.364;2024-02-14T00:56:21;94850.19;;;7.18;93.43
5691;BME280;2870;42.680;23.364;2024-02-14T00:58:50;94864.19;;;7.26;92.64
5691;BME280;2870;42.680;23.364;2024-02-14T01:01:17;94854.59;;;7.13;92.79
5691;BME280;2870;42.680;23.364;2024-02-14T01:03:43;94852.97;;;6.97;93.77
5691;BME280;2870;42.680;23.364;2024-02-14T01:06:10;94852.09;;;6.81;94.04
5691;BME280;2870;42.680;23.364;2024-02-14T01:08:37;94859.03;;;6.88;93.27
5691;BME280;2870;42.680;23.364;2024-02-14T01:11:04;94851.72;;;6.85;94.47
5691;BME280;2870;42.680;23.364;2024-02-14T01:13:30;94856.97;;;6.88;93.75
5691;BME280;2870;42.680;23.364;2024-02-14T01:15:58;94855.03;;;7.17;93.46
5691;BME280;2870;42.680;23.364;2024-02-14T01:18:25;94856.91;;;7.02;92.96
5691;BME280;2870;42.680;23.364;2024-02-14T01:20:52;94851.06;;;6.58;94.12
5691;BME280;2870;42.680;23.364;2024-02-14T01:23:19;94850.63;;;7.22;93.03
5691;BME280;2870;42.680;23.364;2024-02-14T01:25:46;94853.78;;;6.84;94.03
5691;BME280;2870;42.680;23.364;2024-02-14T01:28:12;94853.31;;;6.94;92.45
5691;BME280;2870;42.680;23.364;2024-02-14T01:30:39;94848.56;;;7.02;92.98
5691;BME280;2870;42.680;23.364;2024-02-14T01:33:08;94853.19;;;7.20;91.28
5691;BME280;2870;42.680;23.364;2024-02-14T01:35:34;94848.09;;;7.11;91.69
5691;BME280;2870;42.680;23.364;2024-02-14T01:38:01;94845.56;;;7.00;92.88
5691;BME280;2870;42.680;23.364;2024-02-14T01:40:28;94843.91;;;6.83;92.48
5691;BME280;2870;42.680;23.364;2024-02-14T01:42:54;94844.97;;;6.80;93.96
5691;BME280;2870;42.680;23.364;2024-02-14T01:45:21;94850.91;;;6.98;93.60
5691;BME280;2870;42.680;23.364;2024-02-14T01:47:48;94851.88;;;7.00;92.71
5691;BME280;2870;42.680;23.364;2024-02-14T01:50:17;94853.28;;;6.73;92.75
5691;BME280;2870;42.680;23.364;2024-02-14T01:52:51;94853.47;;;7.30;92.27
5691;BME280;2870;42.680;23.364;2024-02-14T01:55:18;94854.63;;;6.93;91.61
5691;BME280;2870;42.680;23.364;2024-02-14T01:57:44;94846.63;;;6.97;91.94
5691;BME280;2870;42.680;23.364;2024-02-14T02:00:12;94855.38;;;7.35;90.77
5691;BME280;2870;42.680;23.364;2024-02-14T02:02:43;94852.75;;;7.58;90.62
5691;BME280;2870;42.680;23.364;2024-02-14T02:05:11;94849.03;;;7.55;89.61
5691;BME280;2870;42.680;23.364;2024-02-14T02:07:39;94863.78;;;7.01;91.29
5691;BME280;2870;42.680;23.364;2024-02-14T02:10:09;94857.41;;;6.93;91.99
5691;BME280;2870;42.680;23.364;2024-02-14T02:12:35;94861.06;;;6.87;92.15
5691;BME280;2870;42.680;23.364;2024-02-14T02:15:05;94860.94;;;6.93;91.69
5691;BME280;2870;42.680;23.364;2024-02-14T02:17:31;94877.75;;;6.67;92.38
5691;BME280;2870;42.680;23.364;2024-02-14T02:19:59;94866.13;;;7.10;91.29
5691;BME280;2870;42.680;23.364;2024-02-14T02:39:51;94873.09;;;7.03;91.96
5691;BME280;2870;42.680;23.364;2024-02-14T02:42:18;94866.50;;;6.59;92.86
5691;BME280;2870;42.680;23.364;2024-02-14T02:44:46;94871.16;;;6.77;93.02
5691;BME280;2870;42.680;23.364;2024-02-14T02:47:14;94883.75;;;6.91;91.83
5691;BME280;2870;42.680;23.364;2024-02-14T02:49:42;94849.56;;;6.57;91.52
5691;BME280;2870;42.680;23.364;2024-02-14T02:52:09;94889.19;;;7.31;90.74
5691;BME280;2870;42.680;23.364;2024-02-14T02:54:36;94892.66;;;7.24;89.53
5691;BME280;2870;42.680;23.364;2024-02-14T02:57:07;94891.00;;;6.87;90.41
5691;BME280;2870;42.680;23.364;2024-02-14T02:59:35;94892.25;;;6.86;90.66
5691;BME280;2870;42.680;23.364;2024-02-14T03:04:42;94896.69;;;6.81;90.84
5691;BME280;2870;42.680;23.364;2024-02-14T03:07:08;94891.00;;;6.74;91.12
5691;BME280;2870;42.680;23.364;2024-02-14T03:09:35;94909.72;;;7.00;90.57
5691;BME280;2870;42.680;23.364;2024-02-14T03:12:02;94871.50;;;6.74;90.06
5691;BME280;2870;42.680;23.364;2024-02-14T03:14:31;94910.88;;;6.70;90.84
5691;BME280;2870;42.680;23.364;2024-02-14T03:16:59;94912.25;;;7.11;90.14
5691;BME280;2870;42.680;23.364;2024-02-14T03:19:28;94915.94;;;7.27;90.20
5691;BME280;2870;42.680;23.364;2024-02-14T03:21:55;94920.75;;;7.05;89.25
5691;BME280;2870;42.680;23.364;2024-02-14T03:24:23;94914.13;;;6.95;89.45
5691;BME280;2870;42.680;23.364;2024-02-14T03:26:50;94927.31;;;6.95;89.46
5691;BME280;2870;42.680;23.364;2024-02-14T03:29:19;94925.75;;;6.73;89.78
5691;BME280;2870;42.680;23.364;2024-02-14T03:31:47;94928.38;;;6.91;89.40
5691;BME280;2870;42.680;23.364;2024-02-14T03:34:14;94939.22;;;6.95;89.76
5691;BME280;2870;42.680;23.364;2024-02-14T03:36:40;94948.00;;;6.86;90.17
5691;BME280;2870;42.680;23.364;2024-02-14T03:39:08;94942.81;;;7.03;88.90
5691;BME280;2870;42.680;23.364;2024-02-14T03:41:36;94939.09;;;7.01;88.93
5691;BME280;2870;42.680;23.364;2024-02-14T03:44:04;94944.94;;;6.63;89.45
5691;BME280;2870;42.680;23.364;2024-02-14T03:46:32;94941.50;;;6.83;89.79
5691;BME280;2870;42.680;23.364;2024-02-14T03:49:02;94946.38;;;7.04;89.57
5691;BME280;2870;42.680;23.364;2024-02-14T03:51:28;94959.97;;;7.21;88.39
5691;BME280;2870;42.680;23.364;2024-02-14T03:53:55;94951.78;;;6.88;89.33
5691;BME280;2870;42.680;23.364;2024-02-14T03:56:22;94951.72;;;7.02;89.56
5691;BME280;2870;42.680;23.364;2024-02-14T03:58:49;94946.63;;;6.79;88.76
5691;BME280;2870;42.680;23.364;2024-02-14T04:01:16;94947.44;;;6.53;88.93
5691;BME280;2870;42.680;23.364;2024-02-14T04:03:43;94948.53;;;6.37;89.87
5691;BME280;2870;42.680;23.364;2024-02-14T04:06:11;94948.75;;;7.00;89.31
5691;BME280;2870;42.680;23.364;2024-02-14T04:08:38;94958.25;;;6.70;88.91
5691;BME280;2870;42.680;23.364;2024-02-14T04:11:05;94960.72;;;7.08;88.94
5691;BME280;2870;42.680;23.364;2024-02-14T04:13:32;94969.03;;;7.34;87.48
5691;BME280;2870;42.680;23.364;2024-02-14T04:15:58;94973.19;;;7.07;87.48
5691;BME280;2870;42.680;23.364;2024-02-14T04:18:26;94982.22;;;7.00;88.13
5691;BME280;2870;42.680;23.364;2024-02-14T04:20:52;94977.41;;;6.87;87.48
5691;BME280;2870;42.680;23.364;2024-02-14T04:23:20;94972.59;;;6.74;88.41
5691;BME280;2870;42.680;23.364;2024-02-14T04:25:47;94973.69;;;6.58;89.38
5691;BME280;2870;42.680;23.364;2024-02-14T04:28:14;94985.66;;;6.79;88.88
5691;BME280;2870;42.680;23.364;2024-02-14T04:30:41;94980.56;;;6.70;88.33
5691;BME280;2870;42.680;23.364;2024-02-14T04:33:08;94966.72;;;6.51;89.40
5691;BME280;2870;42.680;23.364;2024-02-14T04:35:36;94981.59;;;6.80;88.40
5691;BME280;2870;42.680;23.364;2024-02-14T04:38:03;94986.56;;;6.61;88.59
5691;BME280;2870;42.680;23.364;2024-02-14T04:40:31;94974.44;;;6.32;89.83
5691;BME280;2870;42.680;23.364;2024-02-14T04:42:58;94987.50;;;6.50;90.34
5691;BME280;2870;42.680;23.364;2024-02-14T04:45:25;94988.69;;;6.55;89.68
5691;BME280;2870;42.680;23.364;2024-02-14T04:47:51;95000.16;;;6.78;89.10
5691;BME280;2870;42.680;23.364;2024-02-14T04:50:18;94996.31;;;6.54;89.11
5691;BME280;2870;42.680;23.364;2024-02-14T04:52:45;95000.91;;;6.65;88.70
5691;BME280;2870;42.680;23.364;2024-02-14T04:55:12;94995.88;;;6.50;89.61
5691;BME280;2870;42.680;23.364;2024-02-14T04:57:40;95006.91;;;6.29;90.79
5691;BME280;2870;42.680;23.364;2024-02-14T05:00:08;95005.63;;;6.30;90.90
5691;BME280;2870;42.680;23.364;2024-02-14T05:02:35;95007.00;;;6.63;89.73
5691;BME280;2870;42.680;23.364;2024-02-14T05:05:02;95009.06;;;6.50;89.91
5691;BME280;2870;42.680;23.364;2024-02-14T05:07:29;95014.53;;;6.55;90.02
5691;BME280;2870;42.680;23.364;2024-02-14T05:09:56;95017.59;;;6.12;90.77
5691;BME280;2870;42.680;23.364;2024-02-14T05:12:22;95026.88;;;6.60;90.52
5691;BME280;2870;42.680;23.364;2024-02-14T05:14:51;95030.94;;;6.72;89.81
5691;BME280;2870;42.680;23.364;2024-02-14T05:17:17;95041.63;;;6.95;88.25
5691;BME280;2870;42.680;23.364;2024-02-14T05:19:44;95039.81;;;6.44;89.76
5691;BME280;2870;42.680;23.364;2024-02-14T05:22:11;95040.78;;;6.73;89.91
5691;BME280;2870;42.680;23.364;2024-02-14T05:24:37;95047.63;;;6.85;89.06
5691;BME280;2870;42.680;23.364;2024-02-14T05:27:05;95045.91;;;6.96;89.11
5691;BME280;2870;42.680;23.364;2024-02-14T05:29:31;95049.81;;;6.93;89.01
5691;BME280;2870;42.680;23.364;2024-02-14T05:31:59;95063.09;;;7.00;88.97
5691;BME280;2870;42.680;23.364;2024-02-14T05:34:26;95054.94;;;6.88;88.81
5691;BME280;2870;42.680;23.364;2024-02-14T05:36:53;95057.72;;;6.88;87.91
5691;BME280;2870;42.680;23.364;2024-02-14T05:39:20;95072.00;;;6.72;87.80
5691;BME280;2870;42.680;23.364;2024-02-14T05:41:46;95071.00;;;7.09;86.92
5691;BME280;2870;42.680;23.364;2024-02-14T05:44:14;95071.66;;;7.02;86.39
5691;BME280;2870;42.680;23.364;2024-02-14T05:46:41;95067.81;;;6.78;87.75
5691;BME280;2870;42.680;23.364;2024-02-14T05:49:09;95080.66;;;6.55;87.88
5691;BME280;2870;42.680;23.364;2024-02-14T05:51:36;95088.78;;;6.40;89.12
5691;BME280;2870;42.680;23.364;2024-02-14T05:54:02;95084.09;;;6.48;89.72
5691;BME280;2870;42.680;23.364;2024-02-14T05:56:29;95087.59;;;6.35;90.12
5691;BME280;2870;42.680;23.364;2024-02-14T05:58:56;95091.72;;;6.60;88.66
5691;BME280;2870;42.680;23.364;2024-02-14T06:01:22;95095.16;;;6.67;88.97
5691;BME280;2870;42.680;23.364;2024-02-14T06:03:49;95101.06;;;6.76;87.93
5691;BME280;2870;42.680;23.364;2024-02-14T06:06:17;95100.19;;;6.81;88.04
5691;BME280;2870;42.680;23.364;2024-02-14T06:08:44;95099.88;;;6.98;86.92
5691;BME280;2870;42.680;23.364;2024-02-14T06:11:11;95108.78;;;7.10;85.74
5691;BME280;2870;42.680;23.364;2024-02-14T06:13:39;95111.81;;;6.40;88.10
5691;BME280;2870;42.680;23.364;2024-02-14T06:16:06;95063.25;;;6.22;87.26
5691;BME280;2870;42.680;23.364;2024-02-14T06:18:33;95116.59;;;6.85;86.86
5691;BME280;2870;42.680;23.364;2024-02-14T06:21:00;95121.56;;;6.33;87.25
5691;BME280;2870;42.680;23.364;2024-02-14T06:23:28;95124.22;;;6.71;88.41
5691;BME280;2870;42.680;23.364;2024-02-14T06:25:56;95117.41;;;6.08;88.10
5691;BME280;2870;42.680;23.364;2024-02-14T06:28:23;95125.88;;;6.48;87.95
5691;BME280;2870;42.680;23.364;2024-02-14T06:30:49;95133.16;;;6.51;87.02
5691;BME280;2870;42.680;23.364;2024-02-14T06:33:16;95131.50;;;6.29;87.83
5691;BME280;2870;42.680;23.364;2024-02-14T06:35:43;95138.41;;;6.41;87.72
5691;BME280;2870;42.680;23.364;2024-02-14T06:38:10;95136.59;;;6.57;86.16
5691;BME280;2870;42.680;23.364;2024-02-14T06:40:38;95133.88;;;6.83;85.09
5691;BME280;2870;42.680;23.364;2024-02-14T06:43:05;95132.91;;;6.94;83.72
5691;BME280;2870;42.680;23.364;2024-02-14T06:45:32;95139.06;;;6.15;86.03
5691;BME280;2870;42.680;23.364;2024-02-14T06:47:59;95134.84;;;6.41;85.50
5691;BME280;2870;42.680;23.364;2024-02-14T06:50:26;95148.34;;;6.95;86.35
5691;BME280;2870;42.680;23.364;2024-02-14T06:52:54;95147.00;;;6.43;85.55
5691;BME280;2870;42.680;23.364;2024-02-14T06:55:24;95155.31;;;6.75;84.17
5691;BME280;2870;42.680;23.364;2024-02-14T06:57:53;95150.34;;;6.68;84.13
5691;BME280;2870;42.680;23.364;2024-02-14T07:00:20;95157.97;;;6.68;83.81
5691;BME280;2870;42.680;23.364;2024-02-14T07:02:47;95156.72;;;6.36;83.48
5691;BME280;2870;42.680;23.364;2024-02-14T07:05:13;95159.81;;;6.33;84.08
5691;BME280;2870;42.680;23.364;2024-02-14T07:07:40;95171.72;;;6.79;82.62
5691;BME280;2870;42.680;23.364;2024-02-14T07:10:08;95164.78;;;6.99;82.34
5691;BME280;2870;42.680;23.364;2024-02-14T07:12:35;95172.72;;;7.21;81.83
5691;BME280;2870;42.680;23.364;2024-02-14T07:15:05;95180.75;;;7.11;80.63
5691;BME280;2870;42.680;23.364;2024-02-14T07:17:33;95172.94;;;7.10;80.32
5691;BME280;2870;42.680;23.364;2024-02-14T07:20:01;95178.19;;;7.00;79.83
5691;BME280;2870;42.680;23.364;2024-02-14T07:22:28;95174.44;;;7.11;79.73
5691;BME280;2870;42.680;23.364;2024-02-14T07:24:55;95181.06;;;7.08;79.75
5691;BME280;2870;42.680;23.364;2024-02-14T07:45:26;95209.41;;;7.65;76.81
5691;BME280;2870;42.680;23.364;2024-02-14T07:47:53;95193.97;;;7.51;78.51
5691;BME280;2870;42.680;23.364;2024-02-14T07:50:20;95190.31;;;7.16;79.17
5691;BME280;2870;42.680;23.364;2024-02-14T07:52:47;95202.53;;;7.00;78.69
5691;BME280;2870;42.680;23.364;2024-02-14T07:55:13;95204.69;;;7.20;78.93
5691;BME280;2870;42.680;23.364;2024-02-14T07:57:41;95199.00;;;7.12;78.62
5691;BME280;2870;42.680;23.364;2024-02-14T08:00:09;95204.25;;;7.29;78.88
5691;BME280;2870;42.680;23.364;2024-02-14T08:02:37;95205.00;;;7.30;77.42
5691;BME280;2870;42.680;23.364;2024-02-14T08:05:04;95212.75;;;7.10;78.72
5691;BME280;2870;42.680;23.364;2024-02-14T08:07:31;95211.34;;;7.17;78.68
5691;BME280;2870;42.680;23.364;2024-02-14T08:09:58;95148.56;;;6.97;79.05
5691;BME280;2870;42.680;23.364;2024-02-14T08:12:25;95206.72;;;7.59;77.09
5691;BME280;2870;42.680;23.364;2024-02-14T08:14:52;95218.00;;;7.40;76.89
5691;BME280;2870;42.680;23.364;2024-02-14T08:17:18;95223.47;;;7.20;76.99
5691;BME280;2870;42.680;23.364;2024-02-14T08:19:46;95226.78;;;7.31;76.95
5691;BME280;2870;42.680;23.364;2024-02-14T08:22:13;95229.25;;;7.08;77.55
5691;BME280;2870;42.680;23.364;2024-02-14T08:24:40;95231.53;;;6.64;78.65
5691;BME280;2870;42.680;23.364;2024-02-14T08:27:06;95236.84;;;6.95;78.77
5691;BME280;2870;42.680;23.364;2024-02-14T08:29:33;95231.31;;;6.44;79.09
5691;BME280;2870;42.680;23.364;2024-02-14T08:32:00;95236.81;;;6.81;78.78
5691;BME280;2870;42.680;23.364;2024-02-14T08:34:27;95231.53;;;6.78;78.54
5691;BME280;2870;42.680;23.364;2024-02-14T08:36:55;95241.22;;;6.90;77.97
5691;BME280;2870;42.680;23.364;2024-02-14T08:39:22;95241.19;;;6.77;78.29
5691;BME280;2870;42.680;23.364;2024-02-14T08:41:49;95242.25;;;6.74;78.01
5691;BME280;2870;42.680;23.364;2024-02-14T08:44:16;95240.69;;;6.91;78.32
5691;BME280;2870;42.680;23.364;2024-02-14T08:46:43;95245.84;;;6.87;78.12
5691;BME280;2870;42.680;23.364;2024-02-14T08:49:13;95246.25;;;6.91;77.85
5691;BME280;2870;42.680;23.364;2024-02-14T08:51:40;95255.09;;;7.09;77.66
5691;BME280;2870;42.680;23.364;2024-02-14T08:54:11;95259.63;;;7.12;76.89
5691;BME280;2870;42.680;23.364;2024-02-14T08:56:37;95258.97;;;7.19;76.35
5691;BME280;2870;42.680;23.364;2024-02-14T08:59:04;95266.50;;;7.24;77.80
5691;BME280;2870;42.680;23.364;2024-02-14T09:01:32;95261.38;;;7.28;76.28
5691;BME280;2870;42.680;23.364;2024-02-14T09:03:59;95258.56;;;7.41;75.13
5691;BME280;2870;42.680;23.364;2024-02-14T09:06:26;95252.69;;;7.45;75.30
5691;BME280;2870;42.680;23.364;2024-02-14T09:08:53;95264.06;;;7.34;76.14
5691;BME280;2870;42.680;23.364;2024-02-14T09:11:21;95267.34;;;7.06;75.73
5691;BME280;2870;42.680;23.364;2024-02-14T09:13:48;95255.72;;;7.02;76.15
5691;BME280;2870;42.680;23.364;2024-02-14T09:16:19;95271.25;;;6.97;76.79
5691;BME280;2870;42.680;23.364;2024-02-14T09:18:47;95262.28;;;7.04;77.01
5691;BME280;2870;42.680;23.364;2024-02-14T09:21:14;95259.81;;;7.14;76.20
5691;BME280;2870;42.680;23.364;2024-02-14T09:23:41;95270.59;;;7.36;75.90
5691;BME280;2870;42.680;23.364;2024-02-14T09:26:10;95267.97;;;7.12;76.31
5691;BME280;2870;42.680;23.364;2024-02-14T09:28:40;95273.84;;;6.95;77.37
5691;BME280;2870;42.680;23.364;2024-02-14T09:31:06;95283.59;;;7.34;75.86
5691;BME280;2870;42.680;23.364;2024-02-14T09:33:35;95277.19;;;7.07;76.01
5691;BME280;2870;42.680;23.364;2024-02-14T09:36:02;95276.66;;;7.08;76.50
5691;BME280;2870;42.680;23.364;2024-02-14T09:38:29;95281.28;;;7.19;76.84
5691;BME280;2870;42.680;23.364;2024-02-14T09:41:00;95275.59;;;6.98;77.93
5691;BME280;2870;42.680;23.364;2024-02-14T09:43:33;95277.03;;;7.31;76.28
5691;BME280;2870;42.680;23.364;2024-02-14T09:46:03;95283.22;;;7.11;76.35
5691;BME280;2870;42.680;23.364;2024-02-14T09:48:30;95283.94;;;6.98;76.60
5691;BME280;2870;42.680;23.364;2024-02-14T09:50:57;95284.56;;;6.91;76.82
5691;BME280;2870;42.680;23.364;2024-02-14T09:53:24;95277.28;;;7.01;76.47
5691;BME280;2870;42.680;23.364;2024-02-14T09:55:52;95271.63;;;7.20;77.75
5691;BME280;2870;42.680;23.364;2024-02-14T09:58:21;95255.16;;;6.90;77.24
5691;BME280;2870;42.680;23.364;2024-02-14T10:00:48;95283.16;;;7.43;76.17
5691;BME280;2870;42.680;23.364;2024-02-14T10:03:17;95275.97;;;7.34;76.26
5691;BME280;2870;42.680;23.364;2024-02-14T10:05:44;95267.59;;;7.34;77.13
5691;BME280;2870;42.680;23.364;2024-02-14T10:08:11;95274.13;;;7.24;75.80
5691;BME280;2870;42.680;23.364;2024-02-14T10:10:38;95272.72;;;7.17;76.13
5691;BME280;2870;42.680;23.364;2024-02-14T10:13:05;95273.38;;;7.23;76.04
5691;BME280;2870;42.680;23.364;2024-02-14T10:15:32;95276.63;;;7.40;75.36
5691;BME280;2870;42.680;23.364;2024-02-14T10:17:59;95281.09;;;7.30;74.48
5691;BME280;2870;42.680;23.364;2024-02-14T10:20:27;95278.69;;;7.08;76.10
5691;BME280;2870;42.680;23.364;2024-02-14T10:23:00;95268.66;;;6.86;77.27
5691;BME280;2870;42.680;23.364;2024-02-14T10:25:28;95280.91;;;6.96;76.69
5691;BME280;2870;42.680;23.364;2024-02-14T10:27:54;95269.72;;;7.28;75.09
5691;BME280;2870;42.680;23.364;2024-02-14T10:30:21;95272.97;;;7.32;73.35
5691;BME280;2870;42.680;23.364;2024-02-14T10:32:48;95221.72;;;7.03;73.50
5691;BME280;2870;42.680;23.364;2024-02-14T10:35:15;95269.63;;;7.47;73.00
5691;BME280;2870;42.680;23.364;2024-02-14T10:37:44;95264.38;;;7.57;72.38
5691;BME280;2870;42.680;23.364;2024-02-14T10:40:12;95275.34;;;7.68;73.73
5691;BME280;2870;42.680;23.364;2024-02-14T10:42:39;95267.38;;;7.59;72.90
5691;BME280;2870;42.680;23.364;2024-02-14T10:45:07;95264.59;;;7.59;71.73
5691;BME280;2870;42.680;23.364;2024-02-14T10:47:35;95276.81;;;7.82;72.77
5691;BME280;2870;42.680;23.364;2024-02-14T10:50:03;95275.78;;;7.72;71.12
5691;BME280;2870;42.680;23.364;2024-02-14T10:52:34;95269.75;;;7.68;70.87
5691;BME280;2870;42.680;23.364;2024-02-14T10:55:04;95268.78;;;7.65;69.86
5691;BME280;2870;42.680;23.364;2024-02-14T10:57:31;95272.97;;;7.85;71.32
5691;BME280;2870;42.680;23.364;2024-02-14T11:00:00;95266.09;;;7.33;71.07
5691;BME280;2870;42.680;23.364;2024-02-14T11:02:28;95273.72;;;7.46;72.15
5691;BME280;2870;42.680;23.364;2024-02-14T11:04:56;95270.50;;;7.42;71.48
5691;BME280;2870;42.680;23.364;2024-02-14T11:07:23;95273.63;;;7.52;71.35
5691;BME280;2870;42.680;23.364;2024-02-14T11:10:00;95280.59;;;7.32;71.39
5691;BME280;2870;42.680;23.364;2024-02-14T11:12:32;95272.63;;;7.23;72.61
5691;BME280;2870;42.680;23.364;2024-02-14T11:15:00;95274.13;;;7.24;72.02
5691;BME280;2870;42.680;23.364;2024-02-14T11:17:26;95276.16;;;7.23;73.05
5691;BME280;2870;42.680;23.364;2024-02-14T11:19:53;95268.69;;;7.44;71.69
5691;BME280;2870;42.680;23.364;2024-02-14T11:22:21;95272.31;;;7.53;71.50
5691;BME280;2870;42.680;23.364;2024-02-14T11:24:49;95216.72;;;7.15;72.10
5691;BME280;2870;42.680;23.364;2024-02-14T11:27:18;95279.00;;;7.63;70.51
5691;BME280;2870;42.680;23.364;2024-02-14T11:29:53;95273.09;;;7.66;70.52
5691;BME280;2870;42.680;23.364;2024-02-14T11:32:22;95263.53;;;7.62;70.83
5691;BME280;2870;42.680;23.364;2024-02-14T11:34:56;95269.19;;;7.43;72.68
5691;BME280;2870;42.680;23.364;2024-02-14T11:37:27;95264.94;;;7.68;71.90
5691;BME280;2870;42.680;23.364;2024-02-14T11:53:47;95273.19;;;8.01;70.17
5691;BME280;2870;42.680;23.364;2024-02-14T11:56:14;95267.19;;;7.83;70.92
5691;BME280;2870;42.680;23.364;2024-02-14T11:58:42;95266.41;;;7.96;70.63
5691;BME280;2870;42.680;23.364;2024-02-14T12:01:08;95266.66;;;7.72;70.49
5691;BME280;2870;42.680;23.364;2024-02-14T12:03:36;95261.81;;;7.32;71.92
5691;BME280;2870;42.680;23.364;2024-02-14T12:06:04;95255.78;;;7.41;72.20
5691;BME280;2870;42.680;23.364;2024-02-14T12:08:32;95263.09;;;7.71;72.02
5691;BME280;2870;42.680;23.364;2024-02-14T12:11:01;95261.16;;;7.39;70.73
5691;BME280;2870;42.680;23.364;2024-02-14T12:13:28;95260.66;;;7.09;71.99
5691;BME280;2870;42.680;23.364;2024-02-14T12:15:57;95256.31;;;7.27;71.69
5691;BME280;2870;42.680;23.364;2024-02-14T12:18:24;95264.28;;;7.49;70.99
5691;BME280;2870;42.680;23.364;2024-02-14T12:20:51;95261.81;;;7.32;70.60
5691;BME280;2870;42.680;23.364;2024-02-14T12:23:19;95254.94;;;7.47;71.22
5691;BME280;2870;42.680;23.364;2024-02-14T12:25:46;95264.59;;;7.72;70.44
5691;BME280;2870;42.680;23.364;2024-02-14T12:49:01;95253.22;;;7.83;69.59
5691;BME280;2870;42.680;23.364;2024-02-14T12:51:28;95250.47;;;8.04;68.93
5691;BME280;2870;42.680;23.364;2024-02-14T12:53:55;95247.34;;;8.21;68.00
5691;BME280;2870;42.680;23.364;2024-02-14T12:56:22;95254.34;;;8.14;69.10
5691;BME280;2870;42.680;23.364;2024-02-14T12:58:49;95247.50;;;7.76;69.49
5691;BME280;2870;42.680;23.364;2024-02-14T13:01:16;95262.31;;;7.97;68.32
5691;BME280;2870;42.680;23.364;2024-02-14T13:03:43;95249.94;;;8.19;68.21
5691;BME280;2870;42.680;23.364;2024-02-14T13:06:11;95260.75;;;7.62;69.70
5691;BME280;2870;42.680;23.364;2024-02-14T13:08:39;95268.22;;;7.93;68.94
5691;BME280;2870;42.680;23.364;2024-02-14T13:11:06;95271.41;;;8.11;68.46
5691;BME280;2870;42.680;23.364;2024-02-14T13:13:34;95255.31;;;8.04;67.88
5691;BME280;2870;42.680;23.364;2024-02-14T13:16:01;95269.28;;;8.17;67.62
5691;BME280;2870;42.680;23.364;2024-02-14T13:18:28;95241.16;;;8.02;67.30
5691;BME280;2870;42.680;23.364;2024-02-14T13:20:54;95274.28;;;8.45;67.01
5691;BME280;2870;42.680;23.364;2024-02-14T13:23:26;95271.63;;;8.26;67.03
5691;BME280;2870;42.680;23.364;2024-02-14T13:25:53;95275.75;;;8.12;67.22
5691;BME280;2870;42.680;23.364;2024-02-14T13:28:19;95240.06;;;8.05;67.17
5691;BME280;2870;42.680;23.364;2024-02-14T13:30:49;95271.94;;;8.36;67.29
5691;BME280;2870;42.680;23.364;2024-02-14T13:33:16;95274.28;;;8.32;66.07
5691;BME280;2870;42.680;23.364;2024-02-14T13:35:42;95285.19;;;8.09;66.46
5691;BME280;2870;42.680;23.364;2024-02-14T13:38:09;95277.41;;;8.41;68.33
5691;BME280;2870;42.680;23.364;2024-02-14T13:40:37;95285.19;;;8.56;67.13
5691;BME280;2870;42.680;23.364;2024-02-14T13:43:04;95273.41;;;8.50;66.77
5691;BME280;2870;42.680;23.364;2024-02-14T13:45:40;95251.38;;;8.46;65.50
5691;BME280;2870;42.680;23.364;2024-02-14T13:48:08;95273.28;;;8.56;65.77
5691;BME280;2870;42.680;23.364;2024-02-14T13:50:35;95277.25;;;8.60;64.48
5691;BME280;2870;42.680;23.364;2024-02-14T13:53:03;95276.88;;;8.43;65.12
5691;BME280;2870;42.680;23.364;2024-02-14T13:55:30;95280.25;;;8.02;66.03
5691;BME280;2870;42.680;23.364;2024-02-14T13:57:58;95268.94;;;8.20;66.97
5691;BME280;2870;42.680;23.364;2024-02-14T14:00:25;95240.81;;;8.05;67.70
5691;BME280;2870;42.680;23.364;2024-02-14T14:02:52;95275.09;;;8.06;66.59
5691;BME280;2870;42.680;23.364;2024-02-14T14:05:20;95281.09;;;8.10;66.31
5691;BME280;2870;42.680;23.364;2024-02-14T14:07:50;95274.75;;;8.36;65.96
5691;BME280;2870;42.680;23.364;2024-02-14T14:10:17;95286.50;;;8.08;66.43
5691;BME280;2870;42.680;23.364;2024-02-14T14:12:44;95289.56;;;8.31;66.79
5691;BME280;2870;42.680;23.364;2024-02-14T14:15:12;95281.41;;;8.19;66.60
5691;BME280;2870;42.680;23.364;2024-02-14T14:17:38;95286.69;;;8.23;66.42
5691;BME280;2870;42.680;23.364;2024-02-14T14:20:06;95285.56;;;8.39;65.84
5691;BME280;2870;42.680;23.364;2024-02-14T14:22:33;95284.69;;;8.58;65.23
5691;BME280;2870;42.680;23.364;2024-02-14T14:25:00;95282.75;;;8.53;65.99
5691;BME280;2870;42.680;23.364;2024-02-14T14:27:28;95286.38;;;8.61;65.91
5691;BME280;2870;42.680;23.364;2024-02-14T14:29:54;95289.91;;;8.61;66.43
5691;BME280;2870;42.680;23.364;2024-02-14T14:32:22;95290.03;;;8.69;66.29
5691;BME280;2870;42.680;23.364;2024-02-14T14:34:49;95300.66;;;8.70;65.00
5691;BME280;2870;42.680;23.364;2024-02-14T14:37:16;95304.28;;;8.79;64.56